createdAt,value
2022-11-22T00:00:46.761Z,14.55
2022-11-22T00:03:14.303Z,13.13
2022-11-22T00:05:41.996Z,12.02
2022-11-22T00:08:09.843Z,12.30
2022-11-22T00:10:37.708Z,13.00
2022-11-22T00:13:05.421Z,10.80
2022-11-22T00:15:33.279Z,10.52
2022-11-22T00:18:01.245Z,11.20
2022-11-22T00:20:29.569Z,11.88
2022-11-22T00:22:58.271Z,11.52
2022-11-22T00:25:26.525Z,11.75
2022-11-22T00:27:54.984Z,11.63
2022-11-22T00:30:22.838Z,10.68
2022-11-22T00:32:50.780Z,12.38
2022-11-22T00:35:18.379Z,10.40
2022-11-22T00:37:46.016Z,11.00
2022-11-22T00:40:13.625Z,10.10
2022-11-22T00:42:41.501Z,11.52
2022-11-22T00:45:09.568Z,10.20
2022-11-22T00:47:37.299Z,9.48
2022-11-22T00:50:05.978Z,9.30
2022-11-22T00:52:33.978Z,9.63
2022-11-22T00:55:01.831Z,9.90
2022-11-22T00:57:29.427Z,10.25
2022-11-22T00:59:57.070Z,11.85
2022-11-22T01:02:24.831Z,8.70
2022-11-22T01:04:52.706Z,9.57
2022-11-22T01:07:20.740Z,10.02
2022-11-22T01:09:48.345Z,8.68
2022-11-22T01:12:16.204Z,8.75
2022-11-22T01:14:43.966Z,8.55
2022-11-22T01:17:11.692Z,7.78
2022-11-22T01:19:39.558Z,6.78
2022-11-22T01:22:07.327Z,5.40
2022-11-22T01:24:35.164Z,5.53
2022-11-22T01:27:03.074Z,7.68
2022-11-22T01:29:30.878Z,5.88
2022-11-22T01:31:58.917Z,3.42
2022-11-22T01:34:26.790Z,3.63
2022-11-22T01:36:54.411Z,3.58
2022-11-22T01:39:21.919Z,4.35
2022-11-22T01:41:49.810Z,4.45
2022-11-22T01:44:44.083Z,2.50
2022-11-22T01:49:42.151Z,2.85
2022-11-22T01:52:15.672Z,1.67
2022-11-22T01:54:45.754Z,3.17
2022-11-22T01:57:21.129Z,2.92
2022-11-22T01:59:54.083Z,2.22
2022-11-22T02:02:21.799Z,3.33
2022-11-22T02:04:51.901Z,3.67
2022-11-22T02:07:47.297Z,2.40
2022-11-22T02:10:17.623Z,1.25
2022-11-22T02:12:45.540Z,2.53
2022-11-22T02:15:13.320Z,2.70
2022-11-22T02:17:41.211Z,2.38
2022-11-22T02:20:09.653Z,2.20
2022-11-22T02:22:55.010Z,3.13
2022-11-22T02:25:36.358Z,1.75
2022-11-22T02:28:05.128Z,2.25
2022-11-22T02:30:32.789Z,2.55
2022-11-22T02:33:00.332Z,2.25
2022-11-22T02:35:29.058Z,2.53
2022-11-22T02:38:01.324Z,2.65
2022-11-22T02:40:34.704Z,1.60
2022-11-22T02:43:05.240Z,2.33
2022-11-22T02:45:33.108Z,1.55
2022-11-22T02:48:07.911Z,1.90
2022-11-22T02:50:36.064Z,1.40
2022-11-22T02:53:04.852Z,2.92
2022-11-22T02:55:33.015Z,4.68
2022-11-22T02:58:00.718Z,2.03
2022-11-22T03:00:28.828Z,1.27
2022-11-22T03:02:56.330Z,2.60
2022-11-22T03:05:24.011Z,1.35
2022-11-22T03:07:51.707Z,1.50
2022-11-22T03:10:19.665Z,2.08
2022-11-22T03:12:47.307Z,2.28
2022-11-22T03:15:15.041Z,1.65
2022-11-22T03:17:42.777Z,1.75
2022-11-22T03:20:10.669Z,1.65
2022-11-22T03:22:38.565Z,5.18
2022-11-22T03:25:06.659Z,1.52
2022-11-22T03:27:34.531Z,2.03
2022-11-22T03:30:02.323Z,2.17
2022-11-22T03:32:29.799Z,4.10
2022-11-22T03:34:57.456Z,2.65
2022-11-22T03:37:25.232Z,2.22
2022-11-22T03:39:52.907Z,3.70
2022-11-22T03:42:22.158Z,1.33
2022-11-22T03:44:49.982Z,1.30
2022-11-22T03:47:17.891Z,1.05
2022-11-22T03:49:45.559Z,1.77
2022-11-22T03:52:13.369Z,1.25
2022-11-22T03:54:40.993Z,1.80
2022-11-22T03:57:08.832Z,1.30
2022-11-22T03:59:36.428Z,3.15
2022-11-22T04:02:04.370Z,1.60
2022-11-22T04:04:32.092Z,2.72
2022-11-22T04:06:59.774Z,2.90
2022-11-22T04:09:27.705Z,2.78
2022-11-22T04:11:55.572Z,3.70
2022-11-22T04:14:41.572Z,1.70
2022-11-22T04:17:12.881Z,1.35
2022-11-22T04:20:00.606Z,2.58
2022-11-22T04:22:28.254Z,1.55
2022-11-22T04:25:13.952Z,1.63
2022-11-22T04:27:41.786Z,1.63
2022-11-22T04:30:09.835Z,1.50
2022-11-22T04:32:46.271Z,6.63
2022-11-22T04:35:18.604Z,2.22
2022-11-22T04:37:52.265Z,3.03
2022-11-22T04:40:20.284Z,2.70
2022-11-22T04:43:06.604Z,1.83
2022-11-22T04:45:34.380Z,1.25
2022-11-22T04:48:02.243Z,2.97
2022-11-22T04:50:50.360Z,1.73
2022-11-22T04:53:19.206Z,1.23
2022-11-22T04:55:47.979Z,3.47
2022-11-22T04:58:15.709Z,1.83
2022-11-22T05:00:44.238Z,1.20
2022-11-22T05:03:12.104Z,1.55
2022-11-22T05:05:42.111Z,2.22
2022-11-22T05:08:10.343Z,1.38
2022-11-22T05:10:56.840Z,1.90
2022-11-22T05:13:27.410Z,1.98
2022-11-22T05:15:56.087Z,2.15
2022-11-22T05:18:24.462Z,1.70
2022-11-22T05:20:52.477Z,4.78
2022-11-22T05:23:39.380Z,0.90
2022-11-22T05:26:08.000Z,2.97
2022-11-22T05:28:37.571Z,2.05
2022-11-22T05:31:14.786Z,1.85
2022-11-22T05:33:44.489Z,0.75
2022-11-22T05:36:13.294Z,1.52
2022-11-22T05:38:41.276Z,0.95
2022-11-22T05:41:12.996Z,1.33
2022-11-22T05:43:43.669Z,0.88
2022-11-22T05:46:13.876Z,1.90
2022-11-22T05:48:43.899Z,1.05
2022-11-22T05:51:14.476Z,0.80
2022-11-22T05:53:43.287Z,1.00
2022-11-22T05:56:22.986Z,4.97
2022-11-22T05:58:51.202Z,2.10
2022-11-22T06:01:21.505Z,1.92
2022-11-22T06:03:50.208Z,1.67
2022-11-22T06:06:20.925Z,1.45
2022-11-22T06:08:48.928Z,1.60
2022-11-22T06:11:18.579Z,1.80
2022-11-22T06:13:48.612Z,0.85
2022-11-22T06:16:18.557Z,1.55
2022-11-22T06:18:47.316Z,1.70
2022-11-22T06:21:17.876Z,1.45
2022-11-22T06:23:46.070Z,2.38
2022-11-22T06:26:16.298Z,0.38
2022-11-22T06:28:45.761Z,0.57
2022-11-22T06:31:21.862Z,1.75
2022-11-22T06:33:50.329Z,1.98
2022-11-22T06:36:29.849Z,1.17
2022-11-22T06:38:58.063Z,3.05
2022-11-22T06:41:28.057Z,2.47
2022-11-22T06:43:58.842Z,1.55
2022-11-22T06:46:27.582Z,1.33
2022-11-22T06:48:55.403Z,1.35
2022-11-22T06:51:28.666Z,5.13
2022-11-22T06:53:57.957Z,0.98
2022-11-22T06:56:36.171Z,1.75
2022-11-22T06:59:05.856Z,3.88
2022-11-22T07:01:35.325Z,1.02
2022-11-22T07:04:03.807Z,3.85
2022-11-22T07:06:34.856Z,2.53
2022-11-22T07:09:04.859Z,2.50
2022-11-22T07:11:33.304Z,2.55
2022-11-22T07:14:07.712Z,1.73
2022-11-22T07:16:42.315Z,0.60
2022-11-22T07:21:38.194Z,0.93
2022-11-22T07:24:07.101Z,3.53
2022-11-22T07:26:34.885Z,1.88
2022-11-22T07:29:02.594Z,2.17
2022-11-22T07:31:30.342Z,1.10
2022-11-22T07:33:58.647Z,2.90
2022-11-22T07:36:29.495Z,2.17
2022-11-22T07:38:57.394Z,2.13
2022-11-22T07:41:25.578Z,2.78
2022-11-22T07:43:53.507Z,1.95
2022-11-22T07:46:29.365Z,1.55
2022-11-22T07:49:01.549Z,4.13
2022-11-22T07:51:29.479Z,2.85
2022-11-22T07:53:57.922Z,3.00
2022-11-22T07:56:26.035Z,2.83
2022-11-22T07:58:56.552Z,2.38
2022-11-22T08:01:24.249Z,1.50
2022-11-22T08:03:52.375Z,1.98
2022-11-22T08:06:20.384Z,2.47
2022-11-22T08:08:48.058Z,3.30
2022-11-22T08:11:15.784Z,1.55
2022-11-22T08:13:44.755Z,1.95
2022-11-22T08:16:15.657Z,1.92
2022-11-22T08:18:50.035Z,2.25
2022-11-22T08:21:18.812Z,2.30
2022-11-22T08:23:47.790Z,3.05
2022-11-22T08:26:17.230Z,4.13
2022-11-22T08:28:45.170Z,3.78
2022-11-22T08:31:15.549Z,2.92
2022-11-22T08:33:43.404Z,4.78
2022-11-22T08:36:11.233Z,4.50
2022-11-22T08:38:39.081Z,4.03
2022-11-22T08:41:07.070Z,4.50
2022-11-22T08:43:34.776Z,2.72
2022-11-22T08:46:02.793Z,2.72
2022-11-22T08:48:33.107Z,1.55
2022-11-22T08:51:03.718Z,5.07
2022-11-22T08:53:33.159Z,7.35
2022-11-22T08:56:02.168Z,3.38
2022-11-22T08:58:31.257Z,4.55
2022-11-22T09:01:08.557Z,2.30
2022-11-22T09:03:37.031Z,3.47
2022-11-22T09:09:22.122Z,1.27
2022-11-22T09:11:46.361Z,0.90
2022-11-22T09:14:14.174Z,1.23
2022-11-22T09:16:42.458Z,0.77
2022-11-22T09:19:10.630Z,1.25
2022-11-22T09:21:38.580Z,0.40
2022-11-22T09:24:07.200Z,0.40
2022-11-22T09:26:35.311Z,2.85
2022-11-22T09:29:03.649Z,0.80
2022-11-22T09:31:31.869Z,0.93
2022-11-22T09:33:59.869Z,1.02
2022-11-22T09:36:27.865Z,0.63
2022-11-22T09:38:58.693Z,0.38
2022-11-22T09:41:41.472Z,1.27
2022-11-22T09:44:30.659Z,0.50
2022-11-22T09:47:36.391Z,0.40
2022-11-22T09:50:09.844Z,3.10
2022-11-22T09:52:44.388Z,0.43
2022-11-22T09:55:27.674Z,0.32
2022-11-22T09:58:18.097Z,0.90
2022-11-22T10:00:51.981Z,3.33
2022-11-22T10:03:32.132Z,0.82
2022-11-22T10:06:05.771Z,0.57
2022-11-22T10:09:11.068Z,2.63
2022-11-22T10:11:42.900Z,3.38
2022-11-22T10:14:16.691Z,0.43
2022-11-22T10:17:16.277Z,2.40
2022-11-22T10:20:07.431Z,1.60
2022-11-22T10:22:35.684Z,3.47
2022-11-22T10:25:37.229Z,2.42
2022-11-22T10:28:19.986Z,1.52
2022-11-22T10:31:18.213Z,1.70
2022-11-22T10:34:04.352Z,2.17
2022-11-22T10:36:46.914Z,2.00
2022-11-22T10:39:50.988Z,1.13
2022-11-22T10:42:30.005Z,3.85
2022-11-22T10:45:15.254Z,2.63
2022-11-22T10:48:16.328Z,1.65
2022-11-22T10:50:50.885Z,1.98
2022-11-22T10:55:29.356Z,2.97
2022-11-22T10:58:16.052Z,3.00
2022-11-22T11:00:51.257Z,2.88
2022-11-22T11:03:35.304Z,2.55
2022-11-22T11:10:03.124Z,1.90
2022-11-22T11:12:05.213Z,3.05
2022-11-22T11:14:36.949Z,2.08
2022-11-22T11:17:06.556Z,2.83
2022-11-22T11:19:38.741Z,1.98
2022-11-22T11:22:09.048Z,3.38
2022-11-22T11:24:40.668Z,6.20
2022-11-22T11:27:10.874Z,7.13
2022-11-22T11:29:59.995Z,2.85
2022-11-22T11:32:27.870Z,5.80
2022-11-22T11:35:00.668Z,3.83
2022-11-22T11:37:36.852Z,4.15
2022-11-22T11:40:30.062Z,2.78
2022-11-22T11:43:30.453Z,5.30
2022-11-22T11:46:17.033Z,4.10
2022-11-22T11:48:45.165Z,1.13
2022-11-22T11:51:31.314Z,1.65
2022-11-22T11:54:09.522Z,1.65
2022-11-22T11:56:50.963Z,2.40
2022-11-22T11:59:21.442Z,1.27
2022-11-22T12:01:58.207Z,2.33
2022-11-22T12:04:29.676Z,3.45
2022-11-22T12:07:23.609Z,0.90
2022-11-22T12:09:52.925Z,3.47
2022-11-22T12:12:46.969Z,1.23
2022-11-22T12:15:55.978Z,1.30
2022-11-22T12:18:45.542Z,1.92
2022-11-22T12:21:39.301Z,1.13
2022-11-22T12:24:48.453Z,3.33
2022-11-22T12:26:59.436Z,3.70
2022-11-22T12:29:27.782Z,0.73
2022-11-22T12:32:19.448Z,3.20
2022-11-22T12:35:14.716Z,3.20
2022-11-22T12:37:45.317Z,1.20
2022-11-22T12:40:22.441Z,4.20
2022-11-22T12:42:56.067Z,2.63
2022-11-22T12:47:53.914Z,1.08
2022-11-22T12:50:38.328Z,0.75
2022-11-22T12:53:14.237Z,1.27
2022-11-22T12:55:52.505Z,1.50
2022-11-22T12:58:40.527Z,1.48
2022-11-22T13:01:26.634Z,2.10
2022-11-22T13:04:20.868Z,2.65
2022-11-22T13:09:38.705Z,1.80
2022-11-22T13:12:11.778Z,1.63
2022-11-22T13:14:55.241Z,1.95
2022-11-22T13:17:35.974Z,1.17
2022-11-22T13:20:10.412Z,2.33
2022-11-22T13:22:47.055Z,1.92
2022-11-22T13:25:31.207Z,1.70
2022-11-22T13:28:02.605Z,2.95
2022-11-22T13:30:33.054Z,1.73
2022-11-22T13:33:01.401Z,1.27
2022-11-22T13:35:37.420Z,9.00
2022-11-22T13:38:11.619Z,3.72
2022-11-22T13:40:44.220Z,2.10
2022-11-22T13:43:15.642Z,1.67
2022-11-22T13:45:50.193Z,2.75
2022-11-22T13:48:39.883Z,2.03
2022-11-22T13:51:19.969Z,2.05
2022-11-22T13:53:49.720Z,3.20
2022-11-22T13:56:23.097Z,1.35
2022-11-22T13:59:12.429Z,1.52
2022-11-22T14:01:40.145Z,1.10
2022-11-22T14:04:16.947Z,0.82
2022-11-22T14:06:50.254Z,4.32
2022-11-22T14:09:36.985Z,1.65
2022-11-22T14:12:10.180Z,0.57
2022-11-22T14:14:56.068Z,1.23
2022-11-22T14:17:41.795Z,1.95
2022-11-22T14:20:31.359Z,2.85
2022-11-22T14:23:06.614Z,0.77
2022-11-22T14:26:01.653Z,0.40
2022-11-22T14:28:38.257Z,2.08
2022-11-22T14:31:18.879Z,1.10
2022-11-22T14:34:23.811Z,1.08
2022-11-22T14:37:12.635Z,0.65
2022-11-22T14:39:53.659Z,2.17
2022-11-22T14:42:41.108Z,0.25
2022-11-22T14:45:11.492Z,2.22
2022-11-22T14:47:52.962Z,0.82
2022-11-22T14:50:28.865Z,1.02
2022-11-22T14:52:59.489Z,3.63
2022-11-22T14:55:32.865Z,2.13
2022-11-22T14:58:12.509Z,1.50
2022-11-22T15:01:04.928Z,1.95
2022-11-22T15:09:12.371Z,0.35
2022-11-22T15:09:20.506Z,2.67
2022-11-22T15:10:52.899Z,0.82
2022-11-22T15:13:39.193Z,1.88
2022-11-22T15:59:43.303Z,0.60
2022-11-22T16:02:16.756Z,1.30
2022-11-22T16:06:06.119Z,3.15
2022-11-22T16:07:48.848Z,1.23
2022-11-22T16:10:27.546Z,2.07
2022-11-22T16:12:54.964Z,1.08
2022-11-22T16:15:36.422Z,1.73
2022-11-22T16:18:28.126Z,0.30
2022-11-22T16:21:11.362Z,1.52
2022-11-22T16:23:40.046Z,0.60
2022-11-22T16:26:24.815Z,2.58
2022-11-22T16:28:54.368Z,1.00
2022-11-22T16:31:30.267Z,0.70
2022-11-22T16:33:58.508Z,3.25
2022-11-22T16:36:30.056Z,5.13
2022-11-22T16:38:57.921Z,8.13
2022-11-22T16:41:28.305Z,12.50
2022-11-22T16:44:01.489Z,9.60
2022-11-22T16:46:29.211Z,9.05
2022-11-22T16:48:56.952Z,11.23
2022-11-22T16:51:30.176Z,8.05
2022-11-22T16:53:59.748Z,7.57
2022-11-22T16:56:31.573Z,8.85
2022-11-22T16:58:59.165Z,7.35
2022-11-22T17:01:32.844Z,7.47
2022-11-22T17:04:02.815Z,6.00
2022-11-22T17:06:31.715Z,6.60
2022-11-22T17:09:00.537Z,6.45
2022-11-22T17:11:31.088Z,6.55
2022-11-22T17:13:59.994Z,5.70
2022-11-22T17:16:28.913Z,7.10
2022-11-22T17:18:57.050Z,5.93
2022-11-22T17:21:36.081Z,12.10
2022-11-22T17:24:15.719Z,6.40
2022-11-22T17:26:43.385Z,14.95
2022-11-22T17:29:34.864Z,10.23
2022-11-22T17:31:59.125Z,6.68
2022-11-22T17:34:30.240Z,6.68
2022-11-22T17:36:58.246Z,6.97
2022-11-22T17:39:26.375Z,7.32
2022-11-22T17:41:54.264Z,7.43
2022-11-22T17:44:25.913Z,5.60
2022-11-22T17:46:55.155Z,6.70
2022-11-22T17:49:23.223Z,7.32
2022-11-22T17:51:54.080Z,8.88
2022-11-22T17:54:22.252Z,17.38
2022-11-22T17:56:49.955Z,8.63
2022-11-22T17:59:17.703Z,6.50
2022-11-22T18:01:45.272Z,8.38
2022-11-22T18:04:14.703Z,7.72
2022-11-22T18:06:42.279Z,12.32
2022-11-22T18:09:10.075Z,9.15
2022-11-22T18:11:37.520Z,9.10
2022-11-22T18:14:05.342Z,7.60
2022-11-22T18:16:32.901Z,8.13
2022-11-22T18:19:00.785Z,7.97
2022-11-22T18:21:30.400Z,10.00
2022-11-22T18:23:59.285Z,8.82
2022-11-22T18:26:43.675Z,10.63
2022-11-22T18:32:01.454Z,10.45
2022-11-22T18:34:30.439Z,10.40
2022-11-22T18:37:03.401Z,8.45
2022-11-22T18:42:01.711Z,8.50
2022-11-22T18:44:29.845Z,10.23
2022-11-22T18:46:57.996Z,9.73
2022-11-22T18:49:25.755Z,11.48
2022-11-22T18:51:53.578Z,8.88
2022-11-22T18:54:22.231Z,7.43
2022-11-22T18:56:51.105Z,6.97
2022-11-22T18:59:18.993Z,12.23
2022-11-22T19:01:46.633Z,8.77
2022-11-22T19:04:15.467Z,8.52
2022-11-22T19:06:44.202Z,9.80
2022-11-22T19:09:11.904Z,6.80
2022-11-22T19:11:40.009Z,12.38
2022-11-22T19:14:07.803Z,9.88
2022-11-22T19:16:35.455Z,10.50
2022-11-22T19:19:03.158Z,9.25
2022-11-22T19:21:31.178Z,7.32
2022-11-22T19:23:58.926Z,9.07
2022-11-22T19:26:28.130Z,5.97
2022-11-22T19:28:57.912Z,9.50
2022-11-22T19:31:31.438Z,6.72
2022-11-22T19:36:33.234Z,4.78
2022-11-22T19:39:06.404Z,8.90
2022-11-22T19:41:52.407Z,8.25
2022-11-22T19:44:20.108Z,6.78
2022-11-22T19:46:47.920Z,7.60
2022-11-22T19:49:15.610Z,7.78
2022-11-22T19:51:43.306Z,7.32
2022-11-22T19:54:11.146Z,6.78
2022-11-22T19:56:39.079Z,8.82
2022-11-22T19:59:09.926Z,9.15
2022-11-22T20:01:39.700Z,10.00
2022-11-22T20:04:07.846Z,5.40
2022-11-22T20:06:36.331Z,5.50
2022-11-22T20:09:06.294Z,7.97
2022-11-22T20:11:33.968Z,5.97
2022-11-22T20:14:01.647Z,8.43
2022-11-22T20:16:30.499Z,8.90
2022-11-22T20:19:04.605Z,11.23
2022-11-22T20:21:51.165Z,16.38
2022-11-22T20:24:18.799Z,18.52
2022-11-22T20:26:46.342Z,11.07
2022-11-22T20:29:14.307Z,9.10
2022-11-22T20:31:42.028Z,10.38
2022-11-22T20:34:10.051Z,15.85
2022-11-22T20:36:37.998Z,14.65
2022-11-22T20:39:10.509Z,10.48
2022-11-22T20:41:39.361Z,11.45
2022-11-22T20:44:07.447Z,9.77
2022-11-22T20:46:36.976Z,9.15
2022-11-22T20:49:04.621Z,7.30
2022-11-22T20:51:32.838Z,9.48
2022-11-22T20:54:00.488Z,9.02
2022-11-22T20:56:27.927Z,9.68
2022-11-22T20:58:55.556Z,8.65
2022-11-22T21:01:25.461Z,9.27
2022-11-22T21:03:54.880Z,8.55
2022-11-22T21:06:24.870Z,8.85
2022-11-22T21:08:52.570Z,8.65
2022-11-22T21:11:25.531Z,9.65
2022-11-22T21:13:54.093Z,9.55
2022-11-22T21:16:29.630Z,7.85
2022-11-22T21:19:02.361Z,10.35
2022-11-22T21:21:31.986Z,8.07
2022-11-22T21:24:02.249Z,8.50
2022-11-22T21:26:30.260Z,6.95
2022-11-22T21:28:59.569Z,7.82
2022-11-22T21:31:28.374Z,7.68
2022-11-22T21:33:56.188Z,6.78
2022-11-22T21:36:23.803Z,9.75
2022-11-22T21:38:51.483Z,8.15
2022-11-22T21:44:09.445Z,7.32
2022-11-22T21:46:37.251Z,7.43
2022-11-22T21:49:04.996Z,6.55
2022-11-22T21:51:32.692Z,9.93
2022-11-22T21:54:01.764Z,12.43
2022-11-22T21:56:29.810Z,9.95
2022-11-22T21:58:57.899Z,9.10
2022-11-22T22:01:26.195Z,7.65
2022-11-22T22:03:54.401Z,8.50
2022-11-22T22:06:22.483Z,10.43
2022-11-22T22:08:50.071Z,9.93
2022-11-22T22:11:17.713Z,10.93
2022-11-22T22:13:45.370Z,9.18
2022-11-22T22:16:19.079Z,8.75
2022-11-22T22:18:47.547Z,11.38
2022-11-22T22:21:16.877Z,10.95
2022-11-22T22:23:45.246Z,10.27
2022-11-22T22:26:16.060Z,12.55
2022-11-22T22:28:45.239Z,10.85
2022-11-22T22:31:17.235Z,10.35
2022-11-22T22:33:45.814Z,10.18
2022-11-22T22:36:14.593Z,11.43
2022-11-22T22:38:42.412Z,8.40
2022-11-22T22:41:12.636Z,8.77
2022-11-22T22:43:42.867Z,9.70
2022-11-22T22:46:14.705Z,10.85
2022-11-22T22:48:43.205Z,9.95
2022-11-22T22:51:18.401Z,10.60
2022-11-22T22:53:46.849Z,9.43
2022-11-22T22:56:16.671Z,8.95
2022-11-22T22:58:44.807Z,11.60
2022-11-22T23:01:21.118Z,10.27
2022-11-22T23:03:59.859Z,11.02
2022-11-22T23:06:32.713Z,11.85
2022-11-22T23:09:01.079Z,9.07
2022-11-22T23:11:49.811Z,7.00
2022-11-22T23:14:26.640Z,8.82
2022-11-22T23:16:57.923Z,4.97
2022-11-22T23:19:27.012Z,6.28
2022-11-22T23:21:55.666Z,6.15
2022-11-22T23:24:23.193Z,7.25
2022-11-22T23:26:50.846Z,6.38
2022-11-22T23:29:18.770Z,7.07
2022-11-22T23:31:46.933Z,6.78
2022-11-22T23:34:14.632Z,5.95
2022-11-22T23:36:42.199Z,7.55
2022-11-22T23:39:10.020Z,6.13
2022-11-22T23:41:37.689Z,7.40
2022-11-22T23:44:05.712Z,7.20
2022-11-22T23:46:33.409Z,8.02
2022-11-22T23:49:01.607Z,6.15
2022-11-22T23:51:30.716Z,7.32
2022-11-22T23:54:03.479Z,4.68
2022-11-22T23:56:33.835Z,5.40
2022-11-22T23:59:02.277Z,6.70
